createdAt,value
2022-12-16T00:03:51.984Z,1.80
2022-12-16T00:08:54.923Z,1.70
2022-12-16T00:13:57.161Z,1.60
2022-12-16T00:18:59.340Z,1.50
2022-12-16T00:24:01.558Z,1.40
2022-12-16T00:29:05.580Z,1.20
2022-12-16T00:34:07.701Z,1.20
2022-12-16T00:39:11.127Z,1.00
2022-12-16T00:44:13.535Z,0.90
2022-12-16T00:49:18.701Z,0.80
2022-12-16T00:54:20.848Z,0.70
2022-12-16T00:59:23.088Z,0.70
2022-12-16T01:04:26.902Z,0.70
2022-12-16T01:09:29.027Z,0.50
2022-12-16T01:14:31.166Z,0.50
2022-12-16T01:19:33.339Z,0.50
2022-12-16T01:24:35.564Z,0.50
2022-12-16T01:29:37.806Z,0.40
2022-12-16T01:34:40.093Z,0.40
2022-12-16T01:39:42.550Z,0.40
2022-12-16T01:44:46.880Z,0.40
2022-12-16T01:49:51.613Z,0.40
2022-12-16T01:55:07.232Z,0.20
2022-12-16T02:00:10.523Z,0.20
2022-12-16T02:05:22.073Z,0.30
2022-12-16T02:10:48.747Z,0.40
2022-12-16T02:15:53.839Z,0.50
2022-12-16T02:21:30.432Z,0.70
2022-12-16T02:26:52.752Z,0.40
2022-12-16T02:32:20.879Z,0.30
2022-12-16T02:37:59.525Z,0.40
2022-12-16T02:43:07.505Z,0.30
2022-12-16T02:48:10.751Z,0.20
2022-12-16T02:53:13.655Z,0.20
2022-12-16T02:58:24.636Z,0.20
2022-12-16T03:03:46.176Z,0.10
2022-12-16T03:08:53.691Z,0.10
2022-12-16T03:13:57.388Z,0.00
2022-12-16T03:19:04.041Z,0.00
2022-12-16T03:24:10.742Z,-0.10
2022-12-16T03:29:28.070Z,-0.20
2022-12-16T03:34:41.078Z,-0.30
2022-12-16T03:39:51.044Z,-0.30
2022-12-16T03:44:53.330Z,-0.30
2022-12-16T03:49:55.872Z,-0.30
2022-12-16T03:54:58.257Z,-0.10
2022-12-16T04:00:00.490Z,-0.30
2022-12-16T04:05:02.675Z,-0.30
2022-12-16T04:10:06.009Z,-0.30
2022-12-16T04:15:27.512Z,-0.40
2022-12-16T04:20:51.394Z,-0.20
2022-12-16T04:25:57.186Z,-0.20
2022-12-16T04:30:59.616Z,-0.30
2022-12-16T04:36:20.326Z,-0.30
2022-12-16T04:41:41.240Z,-0.30
2022-12-16T04:47:02.375Z,-0.30
2022-12-16T04:52:23.982Z,-0.40
2022-12-16T04:57:44.907Z,-0.40
2022-12-16T05:03:12.178Z,-0.40
2022-12-16T05:08:33.135Z,-0.30
2022-12-16T05:13:53.946Z,-0.40
2022-12-16T05:19:14.649Z,-0.40
2022-12-16T05:24:35.569Z,-0.40
2022-12-16T05:29:56.175Z,-0.30
2022-12-16T05:35:16.743Z,-0.20
2022-12-16T05:40:37.492Z,-0.30
2022-12-16T05:46:01.578Z,-0.40
2022-12-16T05:51:22.471Z,-0.50
2022-12-16T05:56:43.134Z,-0.60
2022-12-16T06:02:03.840Z,-0.70
2022-12-16T06:07:24.569Z,-0.70
2022-12-16T06:12:45.282Z,-0.70
2022-12-16T06:18:09.596Z,-0.50
2022-12-16T06:23:30.498Z,-0.70
2022-12-16T06:28:51.174Z,-0.80
2022-12-16T06:34:11.965Z,-0.80
2022-12-16T06:39:32.712Z,-0.90
2022-12-16T06:44:53.634Z,-0.80
2022-12-16T06:50:14.218Z,-0.80
2022-12-16T06:55:34.981Z,-0.80
2022-12-16T07:00:55.628Z,-0.90
2022-12-16T07:06:16.496Z,-0.80
2022-12-16T07:11:37.019Z,-0.70
2022-12-16T07:16:57.671Z,-0.60
2022-12-16T07:22:18.318Z,-0.60
2022-12-16T07:27:39.062Z,-0.70
2022-12-16T07:32:59.668Z,-0.80
2022-12-16T07:38:20.500Z,-0.90
2022-12-16T07:43:41.919Z,-0.90
2022-12-16T07:49:02.654Z,-0.90
2022-12-16T07:54:23.700Z,-1.00
2022-12-16T07:59:44.625Z,-1.10
2022-12-16T08:05:05.150Z,-1.10
2022-12-16T08:10:26.461Z,-0.80
2022-12-16T08:15:47.264Z,-0.70
2022-12-16T08:21:09.490Z,-0.60
2022-12-16T08:26:30.383Z,-0.60
2022-12-16T08:31:50.978Z,-0.70
2022-12-16T08:37:11.637Z,-0.80
2022-12-16T08:42:32.768Z,-0.80
2022-12-16T08:47:53.250Z,-0.90
2022-12-16T08:53:14.108Z,-0.90
2022-12-16T08:58:35.022Z,-0.70
2022-12-16T09:03:56.155Z,-0.70
2022-12-16T09:09:18.152Z,-0.60
2022-12-16T09:14:38.737Z,-0.50
2022-12-16T09:19:59.175Z,-0.40
2022-12-16T09:25:19.992Z,-0.40
2022-12-16T09:30:41.151Z,-0.30
2022-12-16T09:36:02.082Z,-0.30
2022-12-16T09:41:45.545Z,-0.30
2022-12-16T09:47:19.245Z,-0.20
2022-12-16T09:52:41.099Z,0.00
2022-12-16T09:58:02.769Z,0.10
2022-12-16T10:03:50.432Z,0.30
2022-12-16T10:09:29.851Z,0.40
2022-12-16T10:14:58.849Z,0.60
2022-12-16T10:20:33.054Z,0.70
2022-12-16T10:25:56.355Z,0.90
2022-12-16T10:31:17.632Z,1.10
2022-12-16T10:36:41.330Z,1.30
2022-12-16T10:42:04.875Z,1.60
2022-12-16T10:47:25.631Z,1.70
2022-12-16T10:52:46.268Z,2.00
2022-12-16T10:58:44.174Z,2.20
2022-12-16T11:04:04.825Z,2.50
2022-12-16T11:09:39.668Z,2.90
2022-12-16T11:20:52.504Z,3.90
2022-12-16T11:26:36.062Z,4.20
2022-12-16T11:31:59.767Z,4.40
2022-12-16T11:37:22.245Z,4.70
2022-12-16T11:42:50.656Z,4.90
2022-12-16T11:48:35.731Z,5.20
2022-12-16T11:54:18.055Z,5.60
2022-12-16T11:59:50.418Z,5.90
2022-12-16T12:05:11.420Z,6.20
2022-12-16T12:10:37.838Z,6.40
2022-12-16T12:16:20.990Z,6.70
2022-12-16T12:21:45.891Z,7.00
2022-12-16T12:27:26.815Z,7.30
2022-12-16T12:33:19.528Z,7.30
2022-12-16T12:39:09.260Z,6.40
2022-12-16T12:44:53.074Z,6.20
2022-12-16T12:50:26.054Z,5.90
2022-12-16T12:56:13.636Z,5.60
2022-12-16T13:01:38.759Z,5.40
2022-12-16T13:07:00.205Z,5.20
2022-12-16T13:12:26.746Z,5.20
2022-12-16T13:17:47.318Z,5.50
2022-12-16T13:23:21.580Z,5.70
2022-12-16T13:28:54.111Z,5.80
2022-12-16T13:34:21.655Z,6.20
2022-12-16T13:39:47.729Z,6.60
2022-12-16T13:45:08.132Z,7.10
2022-12-16T13:50:57.157Z,6.80
2022-12-16T13:56:20.338Z,6.30
2022-12-16T14:01:52.631Z,6.00
2022-12-16T14:07:24.273Z,5.80
2022-12-16T14:13:04.624Z,5.60
2022-12-16T14:18:52.382Z,5.40
2022-12-16T14:24:25.695Z,5.30
2022-12-16T14:29:48.732Z,5.10
2022-12-16T14:35:20.623Z,4.90
2022-12-16T14:40:51.214Z,4.80
2022-12-16T14:46:11.881Z,4.60
2022-12-16T14:51:48.958Z,4.40
2022-12-16T14:57:11.457Z,4.30
2022-12-16T15:02:52.893Z,4.20
2022-12-16T15:08:14.375Z,4.10
2022-12-16T15:13:36.733Z,4.20
2022-12-16T15:19:03.247Z,4.40
2022-12-16T15:24:39.125Z,4.40
2022-12-16T15:30:01.091Z,4.40
2022-12-16T15:35:21.626Z,4.50
2022-12-16T15:40:53.055Z,4.60
2022-12-16T15:46:13.791Z,4.50
2022-12-16T15:52:03.603Z,4.40
2022-12-16T15:57:45.496Z,4.20
2022-12-16T16:03:08.357Z,4.10
2022-12-16T16:08:30.647Z,3.90
2022-12-16T16:13:51.327Z,3.70
2022-12-16T16:19:13.234Z,3.50
2022-12-16T16:24:33.881Z,3.30
2022-12-16T16:29:54.790Z,3.10
2022-12-16T16:35:15.461Z,2.90
2022-12-16T16:40:58.098Z,2.80
2022-12-16T16:46:19.084Z,2.70
2022-12-16T16:51:40.084Z,2.60
2022-12-16T16:57:00.853Z,2.60
2022-12-16T17:02:21.932Z,2.60
2022-12-16T17:07:42.620Z,2.50
2022-12-16T17:13:04.902Z,2.50
2022-12-16T17:18:25.840Z,2.50
2022-12-16T17:23:46.727Z,2.30
2022-12-16T17:29:07.344Z,2.40
2022-12-16T17:34:27.977Z,2.40
2022-12-16T17:39:48.683Z,2.40
2022-12-16T17:45:09.189Z,2.40
2022-12-16T17:50:30.211Z,2.40
2022-12-16T17:55:52.408Z,2.40
2022-12-16T18:01:18.598Z,2.40
2022-12-16T18:06:39.278Z,2.30
2022-12-16T18:11:59.785Z,2.30
2022-12-16T18:17:20.615Z,2.20
2022-12-16T18:22:41.176Z,2.10
2022-12-16T18:28:01.946Z,2.00
2022-12-16T18:33:22.648Z,2.00
2022-12-16T18:38:43.537Z,2.00
2022-12-16T18:44:04.251Z,1.90
2022-12-16T18:49:25.105Z,1.80
2022-12-16T18:54:45.909Z,1.80
2022-12-16T19:00:06.454Z,1.70
2022-12-16T19:05:26.890Z,1.70
2022-12-16T19:10:47.453Z,1.50
2022-12-16T19:16:32.220Z,1.30
2022-12-16T19:21:56.474Z,1.20
2022-12-16T19:27:17.422Z,1.20
2022-12-16T19:32:38.380Z,1.20
2022-12-16T19:37:58.687Z,1.10
2022-12-16T19:43:19.417Z,1.00
2022-12-16T19:48:40.105Z,0.90
2022-12-16T19:54:01.337Z,0.80
2022-12-16T19:59:22.539Z,0.90
2022-12-16T20:04:43.575Z,0.90
2022-12-16T20:10:04.679Z,0.80
2022-12-16T20:15:25.973Z,0.80
2022-12-16T20:20:46.914Z,0.80
2022-12-16T20:26:15.480Z,0.70
2022-12-16T20:31:36.036Z,0.70
2022-12-16T20:36:56.927Z,0.50
2022-12-16T20:42:17.647Z,0.40
2022-12-16T20:47:38.470Z,0.40
2022-12-16T20:52:59.249Z,0.50
2022-12-16T20:58:20.257Z,0.40
2022-12-16T21:03:41.453Z,0.40
2022-12-16T21:09:02.225Z,0.30
2022-12-16T21:14:22.993Z,0.30
2022-12-16T21:19:43.711Z,0.20
2022-12-16T21:25:04.870Z,0.00
2022-12-16T21:30:26.517Z,-0.10
2022-12-16T21:35:47.424Z,0.00
2022-12-16T21:41:11.850Z,0.00
2022-12-16T21:46:32.469Z,-0.10
2022-12-16T21:51:53.595Z,-0.10
2022-12-16T21:57:17.066Z,-0.10
2022-12-16T22:02:37.749Z,-0.10
2022-12-16T22:07:58.463Z,-0.20
2022-12-16T22:13:19.402Z,-0.10
2022-12-16T22:18:40.178Z,-0.10
2022-12-16T22:24:00.663Z,-0.10
2022-12-16T22:29:21.282Z,-0.20
2022-12-16T22:34:41.890Z,-0.20
2022-12-16T22:40:02.656Z,-0.30
2022-12-16T22:45:23.969Z,-0.30
2022-12-16T22:51:04.537Z,-0.30
2022-12-16T22:56:25.618Z,-0.40
2022-12-16T23:01:46.562Z,-0.40
2022-12-16T23:07:07.182Z,-0.60
2022-12-16T23:12:27.798Z,-0.60
2022-12-16T23:17:48.370Z,-0.50
2022-12-16T23:23:08.950Z,-0.40
2022-12-16T23:28:30.375Z,-0.50
2022-12-16T23:33:51.229Z,-0.50
2022-12-16T23:39:12.732Z,-0.70
2022-12-16T23:44:33.689Z,-0.60
2022-12-16T23:49:56.360Z,-0.50
2022-12-16T23:55:17.408Z,-0.50
